sensor_id;sensor_type;location;lat;lon;timestamp;temperature;humidity
32201;DHT22;18701;45.588;5.288;2023-04-03T00:00:56;8.10;99.90
32201;DHT22;18701;45.588;5.288;2023-04-03T00:03:22;7.90;99.90
32201;DHT22;18701;45.588;5.288;2023-04-03T00:05:48;7.90;99.90
32201;DHT22;18701;45.588;5.288;2023-04-03T00:08:14;7.90;99.90
32201;DHT22;18701;45.588;5.288;2023-04-03T00:10:40;8.00;99.90
32201;DHT22;18701;45.588;5.288;2023-04-03T00:13:06;8.00;99.90
32201;DHT22;18701;45.588;5.288;2023-04-03T00:15:32;7.90;99.90
32201;DHT22;18701;45.588;5.288;2023-04-03T00:17:58;7.90;99.90
32201;DHT22;18701;45.588;5.288;2023-04-03T00:20:24;7.90;99.90
32201;DHT22;18701;45.588;5.288;2023-04-03T00:22:50;7.90;99.90
32201;DHT22;18701;45.588;5.288;2023-04-03T00:25:16;7.90;99.90
32201;DHT22;18701;45.588;5.288;2023-04-03T00:27:41;7.90;99.90
32201;DHT22;18701;45.588;5.288;2023-04-03T00:30:08;8.00;99.90
32201;DHT22;18701;45.588;5.288;2023-04-03T00:32:36;7.80;99.90
32201;DHT22;18701;45.588;5.288;2023-04-03T00:35:02;8.00;99.90
32201;DHT22;18701;45.588;5.288;2023-04-03T00:37:27;7.90;99.90
32201;DHT22;18701;45.588;5.288;2023-04-03T00:39:53;8.10;99.90
32201;DHT22;18701;45.588;5.288;2023-04-03T00:42:19;7.90;99.90
32201;DHT22;18701;45.588;5.288;2023-04-03T00:47:16;8.00;99.90
32201;DHT22;18701;45.588;5.288;2023-04-03T00:49:42;8.00;99.90
32201;DHT22;18701;45.588;5.288;2023-04-03T00:52:13;7.90;99.90
32201;DHT22;18701;45.588;5.288;2023-04-03T00:54:41;8.00;99.90
32201;DHT22;18701;45.588;5.288;2023-04-03T00:57:08;8.00;99.90
32201;DHT22;18701;45.588;5.288;2023-04-03T00:59:39;8.00;99.90
32201;DHT22;18701;45.588;5.288;2023-04-03T01:02:07;7.90;99.90
32201;DHT22;18701;45.588;5.288;2023-04-03T01:04:38;7.80;99.90
32201;DHT22;18701;45.588;5.288;2023-04-03T01:09:32;8.00;99.90
32201;DHT22;18701;45.588;5.288;2023-04-03T01:14:44;7.90;99.90
32201;DHT22;18701;45.588;5.288;2023-04-03T01:17:37;7.90;99.90
32201;DHT22;18701;45.588;5.288;2023-04-03T01:25:18;8.00;99.90
32201;DHT22;18701;45.588;5.288;2023-04-03T01:27:44;7.90;99.90
32201;DHT22;18701;45.588;5.288;2023-04-03T01:30:10;7.80;99.90
32201;DHT22;18701;45.588;5.288;2023-04-03T01:32:37;7.80;99.90
32201;DHT22;18701;45.588;5.288;2023-04-03T01:35:03;7.80;99.90
32201;DHT22;18701;45.588;5.288;2023-04-03T01:37:29;7.80;99.90
32201;DHT22;18701;45.588;5.288;2023-04-03T01:39:54;7.70;99.90
32201;DHT22;18701;45.588;5.288;2023-04-03T01:42:20;7.80;99.90
32201;DHT22;18701;45.588;5.288;2023-04-03T01:44:46;7.80;99.90
32201;DHT22;18701;45.588;5.288;2023-04-03T01:47:11;7.80;99.90
32201;DHT22;18701;45.588;5.288;2023-04-03T01:49:37;7.90;99.90
32201;DHT22;18701;45.588;5.288;2023-04-03T01:52:03;7.90;99.90
32201;DHT22;18701;45.588;5.288;2023-04-03T01:54:28;8.00;99.90
32201;DHT22;18701;45.588;5.288;2023-04-03T01:56:54;7.90;99.90
32201;DHT22;18701;45.588;5.288;2023-04-03T01:59:20;7.90;99.90
32201;DHT22;18701;45.588;5.288;2023-04-03T02:01:47;7.90;99.90
32201;DHT22;18701;45.588;5.288;2023-04-03T02:04:13;7.90;99.90
32201;DHT22;18701;45.588;5.288;2023-04-03T02:06:38;7.90;99.90
32201;DHT22;18701;45.588;5.288;2023-04-03T02:09:05;8.00;99.90
32201;DHT22;18701;45.588;5.288;2023-04-03T02:11:31;8.00;99.90
32201;DHT22;18701;45.588;5.288;2023-04-03T02:13:56;7.80;99.90
32201;DHT22;18701;45.588;5.288;2023-04-03T02:16:22;7.90;99.90
32201;DHT22;18701;45.588;5.288;2023-04-03T02:18:47;7.90;99.90
32201;DHT22;18701;45.588;5.288;2023-04-03T02:21:13;7.90;99.90
32201;DHT22;18701;45.588;5.288;2023-04-03T02:23:39;7.80;99.90
32201;DHT22;18701;45.588;5.288;2023-04-03T02:26:10;7.70;99.90
32201;DHT22;18701;45.588;5.288;2023-04-03T02:28:36;7.70;99.90
32201;DHT22;18701;45.588;5.288;2023-04-03T02:31:02;7.80;99.90
32201;DHT22;18701;45.588;5.288;2023-04-03T02:33:28;7.70;99.90
32201;DHT22;18701;45.588;5.288;2023-04-03T02:35:55;7.80;99.90
32201;DHT22;18701;45.588;5.288;2023-04-03T02:38:21;7.90;99.90
32201;DHT22;18701;45.588;5.288;2023-04-03T02:40:47;7.90;99.90
32201;DHT22;18701;45.588;5.288;2023-04-03T02:43:12;7.80;99.90
32201;DHT22;18701;45.588;5.288;2023-04-03T02:45:38;7.80;99.90
32201;DHT22;18701;45.588;5.288;2023-04-03T02:48:04;7.80;99.90
32201;DHT22;18701;45.588;5.288;2023-04-03T02:50:30;7.90;99.90
32201;DHT22;18701;45.588;5.288;2023-04-03T02:52:55;7.90;99.90
32201;DHT22;18701;45.588;5.288;2023-04-03T02:55:24;7.80;99.90
32201;DHT22;18701;45.588;5.288;2023-04-03T02:57:49;7.90;99.90
32201;DHT22;18701;45.588;5.288;2023-04-03T03:00:15;8.00;99.90
32201;DHT22;18701;45.588;5.288;2023-04-03T03:02:41;7.90;99.90
32201;DHT22;18701;45.588;5.288;2023-04-03T03:05:07;7.90;99.90
32201;DHT22;18701;45.588;5.288;2023-04-03T03:07:33;7.90;99.90
32201;DHT22;18701;45.588;5.288;2023-04-03T03:09:59;7.90;99.90
32201;DHT22;18701;45.588;5.288;2023-04-03T03:12:25;7.90;99.90
32201;DHT22;18701;45.588;5.288;2023-04-03T03:14:53;7.90;99.90
32201;DHT22;18701;45.588;5.288;2023-04-03T03:17:18;7.90;99.90
32201;DHT22;18701;45.588;5.288;2023-04-03T03:19:44;7.80;99.90
32201;DHT22;18701;45.588;5.288;2023-04-03T03:22:11;8.00;99.90
32201;DHT22;18701;45.588;5.288;2023-04-03T03:24:36;8.00;99.90
32201;DHT22;18701;45.588;5.288;2023-04-03T03:27:02;8.00;99.90
32201;DHT22;18701;45.588;5.288;2023-04-03T03:29:28;8.10;99.90
32201;DHT22;18701;45.588;5.288;2023-04-03T03:31:53;8.00;99.90
32201;DHT22;18701;45.588;5.288;2023-04-03T03:34:19;8.10;99.90
32201;DHT22;18701;45.588;5.288;2023-04-03T03:36:45;8.10;99.90
32201;DHT22;18701;45.588;5.288;2023-04-03T03:39:10;8.10;99.90
32201;DHT22;18701;45.588;5.288;2023-04-03T03:41:36;8.00;99.90
32201;DHT22;18701;45.588;5.288;2023-04-03T03:44:01;8.10;99.90
32201;DHT22;18701;45.588;5.288;2023-04-03T03:46:27;8.00;99.90
32201;DHT22;18701;45.588;5.288;2023-04-03T03:48:53;7.80;99.90
32201;DHT22;18701;45.588;5.288;2023-04-03T03:51:18;7.80;99.90
32201;DHT22;18701;45.588;5.288;2023-04-03T03:53:44;7.90;99.90
32201;DHT22;18701;45.588;5.288;2023-04-03T03:56:10;7.80;99.90
32201;DHT22;18701;45.588;5.288;2023-04-03T03:58:36;7.80;99.90
32201;DHT22;18701;45.588;5.288;2023-04-03T04:01:05;7.70;99.90
32201;DHT22;18701;45.588;5.288;2023-04-03T04:03:31;7.80;99.90
32201;DHT22;18701;45.588;5.288;2023-04-03T04:05:57;7.80;99.90
32201;DHT22;18701;45.588;5.288;2023-04-03T04:08:23;7.80;99.90
32201;DHT22;18701;45.588;5.288;2023-04-03T04:10:49;7.70;99.90
32201;DHT22;18701;45.588;5.288;2023-04-03T04:13:15;7.70;99.90
32201;DHT22;18701;45.588;5.288;2023-04-03T04:15:40;7.80;99.90
32201;DHT22;18701;45.588;5.288;2023-04-03T04:18:07;7.70;99.90
32201;DHT22;18701;45.588;5.288;2023-04-03T04:20:32;7.80;99.90
32201;DHT22;18701;45.588;5.288;2023-04-03T04:22:58;7.70;99.90
32201;DHT22;18701;45.588;5.288;2023-04-03T04:25:23;7.50;99.90
32201;DHT22;18701;45.588;5.288;2023-04-03T04:27:49;7.60;99.90
32201;DHT22;18701;45.588;5.288;2023-04-03T04:30:15;7.60;99.90
32201;DHT22;18701;45.588;5.288;2023-04-03T04:32:40;7.70;99.90
32201;DHT22;18701;45.588;5.288;2023-04-03T04:35:06;7.70;99.90
32201;DHT22;18701;45.588;5.288;2023-04-03T04:37:32;7.70;99.90
32201;DHT22;18701;45.588;5.288;2023-04-03T04:39:58;7.80;99.90
32201;DHT22;18701;45.588;5.288;2023-04-03T04:42:23;7.70;99.90
32201;DHT22;18701;45.588;5.288;2023-04-03T04:44:49;7.70;99.90
32201;DHT22;18701;45.588;5.288;2023-04-03T04:47:15;7.70;99.90
32201;DHT22;18701;45.588;5.288;2023-04-03T04:49:41;7.80;99.90
32201;DHT22;18701;45.588;5.288;2023-04-03T04:52:06;7.80;99.90
32201;DHT22;18701;45.588;5.288;2023-04-03T04:54:32;7.90;99.90
32201;DHT22;18701;45.588;5.288;2023-04-03T04:56:58;7.80;99.90
32201;DHT22;18701;45.588;5.288;2023-04-03T04:59:23;7.90;99.90
32201;DHT22;18701;45.588;5.288;2023-04-03T05:01:49;7.80;99.90
32201;DHT22;18701;45.588;5.288;2023-04-03T05:04:15;7.90;99.90
32201;DHT22;18701;45.588;5.288;2023-04-03T05:06:40;8.00;99.90
32201;DHT22;18701;45.588;5.288;2023-04-03T05:09:06;7.90;99.90
32201;DHT22;18701;45.588;5.288;2023-04-03T05:11:32;7.80;99.90
32201;DHT22;18701;45.588;5.288;2023-04-03T05:13:57;7.60;99.90
32201;DHT22;18701;45.588;5.288;2023-04-03T05:16:23;7.80;99.90
32201;DHT22;18701;45.588;5.288;2023-04-03T05:18:49;7.80;99.90
32201;DHT22;18701;45.588;5.288;2023-04-03T05:21:14;7.80;99.90
32201;DHT22;18701;45.588;5.288;2023-04-03T05:23:40;7.70;99.90
32201;DHT22;18701;45.588;5.288;2023-04-03T05:26:06;7.70;99.90
32201;DHT22;18701;45.588;5.288;2023-04-03T05:28:32;7.70;99.90
32201;DHT22;18701;45.588;5.288;2023-04-03T05:30:58;7.70;99.90
32201;DHT22;18701;45.588;5.288;2023-04-03T05:33:25;7.80;99.90
32201;DHT22;18701;45.588;5.288;2023-04-03T05:35:52;7.80;99.90
32201;DHT22;18701;45.588;5.288;2023-04-03T05:38:18;7.80;99.90
32201;DHT22;18701;45.588;5.288;2023-04-03T05:40:44;7.70;99.90
32201;DHT22;18701;45.588;5.288;2023-04-03T05:43:10;7.80;99.90
32201;DHT22;18701;45.588;5.288;2023-04-03T05:45:35;7.80;99.90
32201;DHT22;18701;45.588;5.288;2023-04-03T05:48:01;7.90;99.90
32201;DHT22;18701;45.588;5.288;2023-04-03T05:50:27;7.80;99.90
32201;DHT22;18701;45.588;5.288;2023-04-03T05:52:55;7.80;99.90
32201;DHT22;18701;45.588;5.288;2023-04-03T05:55:22;7.90;99.90
32201;DHT22;18701;45.588;5.288;2023-04-03T05:57:48;7.90;99.90
32201;DHT22;18701;45.588;5.288;2023-04-03T06:00:15;7.90;99.90
32201;DHT22;18701;45.588;5.288;2023-04-03T06:02:41;7.90;99.90
32201;DHT22;18701;45.588;5.288;2023-04-03T06:05:08;8.10;99.90
32201;DHT22;18701;45.588;5.288;2023-04-03T06:07:34;8.00;99.90
32201;DHT22;18701;45.588;5.288;2023-04-03T06:10:01;8.00;99.90
32201;DHT22;18701;45.588;5.288;2023-04-03T06:12:27;8.10;99.90
32201;DHT22;18701;45.588;5.288;2023-04-03T06:14:55;8.10;99.90
32201;DHT22;18701;45.588;5.288;2023-04-03T06:17:20;8.10;99.90
32201;DHT22;18701;45.588;5.288;2023-04-03T06:19:46;8.10;99.90
32201;DHT22;18701;45.588;5.288;2023-04-03T06:22:12;8.20;99.90
32201;DHT22;18701;45.588;5.288;2023-04-03T06:24:38;8.10;99.90
32201;DHT22;18701;45.588;5.288;2023-04-03T06:27:04;8.10;99.90
32201;DHT22;18701;45.588;5.288;2023-04-03T06:29:30;8.20;99.90
32201;DHT22;18701;45.588;5.288;2023-04-03T06:31:56;8.20;99.90
32201;DHT22;18701;45.588;5.288;2023-04-03T06:34:25;8.30;99.90
32201;DHT22;18701;45.588;5.288;2023-04-03T06:36:51;8.30;99.90
32201;DHT22;18701;45.588;5.288;2023-04-03T06:39:18;8.30;99.90
32201;DHT22;18701;45.588;5.288;2023-04-03T06:41:46;8.30;99.90
32201;DHT22;18701;45.588;5.288;2023-04-03T06:44:12;8.20;99.90
32201;DHT22;18701;45.588;5.288;2023-04-03T06:46:38;8.20;99.90
32201;DHT22;18701;45.588;5.288;2023-04-03T06:49:05;8.20;99.90
32201;DHT22;18701;45.588;5.288;2023-04-03T06:51:33;8.20;99.90
32201;DHT22;18701;45.588;5.288;2023-04-03T06:54:00;8.30;99.90
32201;DHT22;18701;45.588;5.288;2023-04-03T06:56:26;8.30;99.90
32201;DHT22;18701;45.588;5.288;2023-04-03T06:58:55;8.30;99.90
32201;DHT22;18701;45.588;5.288;2023-04-03T07:01:23;8.30;99.90
32201;DHT22;18701;45.588;5.288;2023-04-03T07:03:50;8.30;99.90
32201;DHT22;18701;45.588;5.288;2023-04-03T07:06:17;8.30;99.90
32201;DHT22;18701;45.588;5.288;2023-04-03T07:08:43;8.30;99.90
32201;DHT22;18701;45.588;5.288;2023-04-03T07:11:09;8.40;99.90
32201;DHT22;18701;45.588;5.288;2023-04-03T07:13:35;8.40;99.90
32201;DHT22;18701;45.588;5.288;2023-04-03T07:16:02;8.50;99.90
32201;DHT22;18701;45.588;5.288;2023-04-03T07:18:29;8.40;99.90
32201;DHT22;18701;45.588;5.288;2023-04-03T07:20:54;8.40;99.90
32201;DHT22;18701;45.588;5.288;2023-04-03T07:23:20;8.30;99.90
32201;DHT22;18701;45.588;5.288;2023-04-03T07:25:47;8.40;99.90
32201;DHT22;18701;45.588;5.288;2023-04-03T07:28:13;8.40;99.90
32201;DHT22;18701;45.588;5.288;2023-04-03T07:30:50;8.40;99.90
32201;DHT22;18701;45.588;5.288;2023-04-03T07:33:18;8.30;99.90
32201;DHT22;18701;45.588;5.288;2023-04-03T07:35:45;8.30;99.90
32201;DHT22;18701;45.588;5.288;2023-04-03T07:38:11;8.40;99.90
32201;DHT22;18701;45.588;5.288;2023-04-03T07:40:37;8.50;99.90
32201;DHT22;18701;45.588;5.288;2023-04-03T07:43:03;8.50;99.90
32201;DHT22;18701;45.588;5.288;2023-04-03T07:45:29;8.50;99.90
32201;DHT22;18701;45.588;5.288;2023-04-03T07:47:55;8.60;99.90
32201;DHT22;18701;45.588;5.288;2023-04-03T07:50:21;8.60;99.90
32201;DHT22;18701;45.588;5.288;2023-04-03T07:52:46;8.60;99.90
32201;DHT22;18701;45.588;5.288;2023-04-03T07:55:12;8.60;99.90
32201;DHT22;18701;45.588;5.288;2023-04-03T07:57:38;8.60;99.90
32201;DHT22;18701;45.588;5.288;2023-04-03T08:00:05;8.60;99.90
32201;DHT22;18701;45.588;5.288;2023-04-03T08:02:30;8.60;99.90
32201;DHT22;18701;45.588;5.288;2023-04-03T08:04:58;8.60;99.90
32201;DHT22;18701;45.588;5.288;2023-04-03T08:07:24;8.70;99.90
32201;DHT22;18701;45.588;5.288;2023-04-03T08:09:49;8.40;99.90
32201;DHT22;18701;45.588;5.288;2023-04-03T08:12:16;8.40;99.90
32201;DHT22;18701;45.588;5.288;2023-04-03T08:14:42;8.50;99.90
32201;DHT22;18701;45.588;5.288;2023-04-03T08:17:08;8.40;99.90
32201;DHT22;18701;45.588;5.288;2023-04-03T08:19:40;8.50;99.90
32201;DHT22;18701;45.588;5.288;2023-04-03T08:22:06;8.50;99.90
32201;DHT22;18701;45.588;5.288;2023-04-03T08:24:33;8.40;99.90
32201;DHT22;18701;45.588;5.288;2023-04-03T08:26:58;8.60;99.90
32201;DHT22;18701;45.588;5.288;2023-04-03T08:29:24;8.60;99.90
32201;DHT22;18701;45.588;5.288;2023-04-03T08:31:50;8.60;99.90
32201;DHT22;18701;45.588;5.288;2023-04-03T08:34:17;8.60;99.90
32201;DHT22;18701;45.588;5.288;2023-04-03T08:36:43;8.80;99.90
32201;DHT22;18701;45.588;5.288;2023-04-03T08:39:09;8.50;99.90
32201;DHT22;18701;45.588;5.288;2023-04-03T08:41:38;8.50;99.90
32201;DHT22;18701;45.588;5.288;2023-04-03T08:46:56;8.50;99.90
32201;DHT22;18701;45.588;5.288;2023-04-03T08:49:29;8.60;99.90
32201;DHT22;18701;45.588;5.288;2023-04-03T08:51:57;8.80;99.90
32201;DHT22;18701;45.588;5.288;2023-04-03T08:54:37;8.70;99.90
32201;DHT22;18701;45.588;5.288;2023-04-03T08:57:05;8.60;99.90
32201;DHT22;18701;45.588;5.288;2023-04-03T08:59:35;8.70;99.90
32201;DHT22;18701;45.588;5.288;2023-04-03T09:02:13;8.80;99.90
32201;DHT22;18701;45.588;5.288;2023-04-03T09:04:41;8.70;99.90
32201;DHT22;18701;45.588;5.288;2023-04-03T09:07:15;8.70;99.90
32201;DHT22;18701;45.588;5.288;2023-04-03T09:09:43;8.70;99.90
32201;DHT22;18701;45.588;5.288;2023-04-03T09:12:25;8.80;99.90
32201;DHT22;18701;45.588;5.288;2023-04-03T09:23:19;8.90;99.90
32201;DHT22;18701;45.588;5.288;2023-04-03T09:25:46;8.70;99.90
32201;DHT22;18701;45.588;5.288;2023-04-03T09:28:11;8.90;99.90
32201;DHT22;18701;45.588;5.288;2023-04-03T09:30:37;9.10;99.90
32201;DHT22;18701;45.588;5.288;2023-04-03T09:33:03;8.90;99.90
32201;DHT22;18701;45.588;5.288;2023-04-03T09:35:31;8.80;99.90
32201;DHT22;18701;45.588;5.288;2023-04-03T09:38:14;8.80;99.90
32201;DHT22;18701;45.588;5.288;2023-04-03T09:40:41;8.70;99.90
32201;DHT22;18701;45.588;5.288;2023-04-03T09:43:31;8.60;99.90
32201;DHT22;18701;45.588;5.288;2023-04-03T09:46:21;8.90;99.90
32201;DHT22;18701;45.588;5.288;2023-04-03T09:49:00;9.00;99.90
32201;DHT22;18701;45.588;5.288;2023-04-03T09:51:30;8.90;99.90
32201;DHT22;18701;45.588;5.288;2023-04-03T09:53:57;9.00;99.90
32201;DHT22;18701;45.588;5.288;2023-04-03T09:56:28;9.00;99.90
32201;DHT22;18701;45.588;5.288;2023-04-03T09:59:06;8.90;99.90
32201;DHT22;18701;45.588;5.288;2023-04-03T10:01:35;8.90;99.90
32201;DHT22;18701;45.588;5.288;2023-04-03T10:06:41;8.90;99.90
32201;DHT22;18701;45.588;5.288;2023-04-03T10:09:21;8.90;99.90
32201;DHT22;18701;45.588;5.288;2023-04-03T10:12:08;8.80;99.90
32201;DHT22;18701;45.588;5.288;2023-04-03T10:14:40;8.90;99.90
32201;DHT22;18701;45.588;5.288;2023-04-03T10:23:05;8.80;99.90
32201;DHT22;18701;45.588;5.288;2023-04-03T10:35:58;9.00;99.90
32201;DHT22;18701;45.588;5.288;2023-04-03T10:41:21;9.00;99.90
32201;DHT22;18701;45.588;5.288;2023-04-03T10:46:43;8.90;99.90
32201;DHT22;18701;45.588;5.288;2023-04-03T10:49:30;8.80;99.90
32201;DHT22;18701;45.588;5.288;2023-04-03T10:52:20;8.80;99.90
32201;DHT22;18701;45.588;5.288;2023-04-03T10:57:18;8.80;99.90
32201;DHT22;18701;45.588;5.288;2023-04-03T10:59:48;8.80;99.90
32201;DHT22;18701;45.588;5.288;2023-04-03T11:04:43;8.50;99.90
32201;DHT22;18701;45.588;5.288;2023-04-03T11:07:15;8.60;99.90
32201;DHT22;18701;45.588;5.288;2023-04-03T11:09:44;8.60;99.90
32201;DHT22;18701;45.588;5.288;2023-04-03T11:12:44;8.60;99.90
32201;DHT22;18701;45.588;5.288;2023-04-03T11:15:15;8.60;99.90
32201;DHT22;18701;45.588;5.288;2023-04-03T11:17:45;8.50;99.90
32201;DHT22;18701;45.588;5.288;2023-04-03T11:20:26;8.50;99.90
32201;DHT22;18701;45.588;5.288;2023-04-03T11:23:24;8.40;99.90
32201;DHT22;18701;45.588;5.288;2023-04-03T11:25:53;8.40;99.90
32201;DHT22;18701;45.588;5.288;2023-04-03T11:28:21;8.50;99.90
32201;DHT22;18701;45.588;5.288;2023-04-03T11:31:13;8.30;99.90
32201;DHT22;18701;45.588;5.288;2023-04-03T11:33:51;8.40;99.90
32201;DHT22;18701;45.588;5.288;2023-04-03T11:36:19;8.40;99.90
32201;DHT22;18701;45.588;5.288;2023-04-03T11:38:49;8.40;99.90
32201;DHT22;18701;45.588;5.288;2023-04-03T11:41:28;8.60;99.90
32201;DHT22;18701;45.588;5.288;2023-04-03T11:46:54;8.40;99.90
32201;DHT22;18701;45.588;5.288;2023-04-03T11:50:02;8.40;99.90
32201;DHT22;18701;45.588;5.288;2023-04-03T12:03:30;8.60;99.90
32201;DHT22;18701;45.588;5.288;2023-04-03T12:32:11;8.50;99.90
32201;DHT22;18701;45.588;5.288;2023-04-03T12:48:37;8.40;99.90
32201;DHT22;18701;45.588;5.288;2023-04-03T12:51:03;8.40;99.90
32201;DHT22;18701;45.588;5.288;2023-04-03T12:53:35;8.60;99.90
32201;DHT22;18701;45.588;5.288;2023-04-03T12:56:27;8.70;99.90
32201;DHT22;18701;45.588;5.288;2023-04-03T12:58:55;8.60;99.90
32201;DHT22;18701;45.588;5.288;2023-04-03T13:01:27;8.60;99.90
32201;DHT22;18701;45.588;5.288;2023-04-03T13:03:55;8.50;99.90
32201;DHT22;18701;45.588;5.288;2023-04-03T13:06:24;8.50;99.90
32201;DHT22;18701;45.588;5.288;2023-04-03T13:08:55;8.60;99.90
32201;DHT22;18701;45.588;5.288;2023-04-03T13:11:24;8.70;99.90
32201;DHT22;18701;45.588;5.288;2023-04-03T13:14:04;8.60;99.90
32201;DHT22;18701;45.588;5.288;2023-04-03T13:16:31;8.70;99.90
32201;DHT22;18701;45.588;5.288;2023-04-03T13:18:57;8.60;99.90
32201;DHT22;18701;45.588;5.288;2023-04-03T13:21:28;8.70;99.90
32201;DHT22;18701;45.588;5.288;2023-04-03T13:23:59;8.80;99.90
32201;DHT22;18701;45.588;5.288;2023-04-03T13:26:29;8.80;99.90
32201;DHT22;18701;45.588;5.288;2023-04-03T13:29:03;9.20;99.90
32201;DHT22;18701;45.588;5.288;2023-04-03T13:31:35;9.20;99.90
32201;DHT22;18701;45.588;5.288;2023-04-03T13:34:17;9.00;99.90
32201;DHT22;18701;45.588;5.288;2023-04-03T13:41:45;9.60;99.90
32201;DHT22;18701;45.588;5.288;2023-04-03T13:44:33;9.50;99.90
32201;DHT22;18701;45.588;5.288;2023-04-03T13:47:14;9.60;99.90
32201;DHT22;18701;45.588;5.288;2023-04-03T13:49:44;9.70;99.90
32201;DHT22;18701;45.588;5.288;2023-04-03T13:52:31;9.80;99.90
32201;DHT22;18701;45.588;5.288;2023-04-03T13:57:54;9.90;99.90
32201;DHT22;18701;45.588;5.288;2023-04-03T14:02:57;10.00;99.90
32201;DHT22;18701;45.588;5.288;2023-04-03T14:05:24;10.00;99.90
32201;DHT22;18701;45.588;5.288;2023-04-03T14:07:51;10.00;99.90
32201;DHT22;18701;45.588;5.288;2023-04-03T14:10:17;10.10;99.90
32201;DHT22;18701;45.588;5.288;2023-04-03T14:12:43;10.00;99.90
32201;DHT22;18701;45.588;5.288;2023-04-03T14:15:22;9.90;99.90
32201;DHT22;18701;45.588;5.288;2023-04-03T14:17:50;10.20;99.90
32201;DHT22;18701;45.588;5.288;2023-04-03T14:20:20;10.30;99.90
32201;DHT22;18701;45.588;5.288;2023-04-03T14:22:47;10.20;99.90
32201;DHT22;18701;45.588;5.288;2023-04-03T14:25:14;10.20;99.90
32201;DHT22;18701;45.588;5.288;2023-04-03T14:27:45;10.30;99.90
32201;DHT22;18701;45.588;5.288;2023-04-03T14:30:19;10.30;99.90
32201;DHT22;18701;45.588;5.288;2023-04-03T14:32:45;10.50;99.90
32201;DHT22;18701;45.588;5.288;2023-04-03T14:35:12;10.50;99.90
32201;DHT22;18701;45.588;5.288;2023-04-03T14:37:38;10.60;99.90
32201;DHT22;18701;45.588;5.288;2023-04-03T14:40:05;10.50;99.90
32201;DHT22;18701;45.588;5.288;2023-04-03T14:42:34;10.50;99.90
32201;DHT22;18701;45.588;5.288;2023-04-03T14:45:03;10.60;99.90
32201;DHT22;18701;45.588;5.288;2023-04-03T14:47:30;10.60;99.90
32201;DHT22;18701;45.588;5.288;2023-04-03T14:49:56;10.50;99.90
32201;DHT22;18701;45.588;5.288;2023-04-03T14:52:30;10.70;99.90
32201;DHT22;18701;45.588;5.288;2023-04-03T14:54:57;10.40;99.90
32201;DHT22;18701;45.588;5.288;2023-04-03T14:57:29;10.40;99.90
32201;DHT22;18701;45.588;5.288;2023-04-03T14:59:55;10.30;99.90
32201;DHT22;18701;45.588;5.288;2023-04-03T15:02:38;10.10;99.90
32201;DHT22;18701;45.588;5.288;2023-04-03T15:05:07;10.10;99.90
32201;DHT22;18701;45.588;5.288;2023-04-03T15:07:38;10.10;99.90
32201;DHT22;18701;45.588;5.288;2023-04-03T15:10:24;10.30;99.90
32201;DHT22;18701;45.588;5.288;2023-04-03T15:12:53;10.30;99.90
32201;DHT22;18701;45.588;5.288;2023-04-03T15:15:20;10.20;99.90
32201;DHT22;18701;45.588;5.288;2023-04-03T15:17:47;10.30;99.90
32201;DHT22;18701;45.588;5.288;2023-04-03T15:20:18;10.30;99.90
32201;DHT22;18701;45.588;5.288;2023-04-03T15:22:45;10.10;99.90
32201;DHT22;18701;45.588;5.288;2023-04-03T15:25:11;10.20;99.90
32201;DHT22;18701;45.588;5.288;2023-04-03T15:27:39;10.30;99.90
32201;DHT22;18701;45.588;5.288;2023-04-03T15:30:07;10.10;99.90
32201;DHT22;18701;45.588;5.288;2023-04-03T15:32:33;10.20;99.90
32201;DHT22;18701;45.588;5.288;2023-04-03T15:35:00;10.20;99.90
32201;DHT22;18701;45.588;5.288;2023-04-03T15:37:27;10.20;99.90
32201;DHT22;18701;45.588;5.288;2023-04-03T15:39:53;10.20;99.90
32201;DHT22;18701;45.588;5.288;2023-04-03T15:42:18;10.20;99.90
32201;DHT22;18701;45.588;5.288;2023-04-03T15:44:44;10.20;99.90
32201;DHT22;18701;45.588;5.288;2023-04-03T15:47:10;10.20;99.90
32201;DHT22;18701;45.588;5.288;2023-04-03T15:49:36;10.10;99.90
32201;DHT22;18701;45.588;5.288;2023-04-03T15:52:02;10.20;99.90
32201;DHT22;18701;45.588;5.288;2023-04-03T15:54:28;10.20;99.90
32201;DHT22;18701;45.588;5.288;2023-04-03T15:56:55;10.10;99.90
32201;DHT22;18701;45.588;5.288;2023-04-03T15:59:21;10.10;99.90
32201;DHT22;18701;45.588;5.288;2023-04-03T16:01:48;10.20;99.90
32201;DHT22;18701;45.588;5.288;2023-04-03T16:04:16;10.10;99.90
32201;DHT22;18701;45.588;5.288;2023-04-03T16:06:42;10.10;99.90
32201;DHT22;18701;45.588;5.288;2023-04-03T16:09:08;10.00;99.90
32201;DHT22;18701;45.588;5.288;2023-04-03T16:11:33;10.00;99.90
32201;DHT22;18701;45.588;5.288;2023-04-03T16:14:02;10.00;99.90
32201;DHT22;18701;45.588;5.288;2023-04-03T16:16:28;10.00;99.90
32201;DHT22;18701;45.588;5.288;2023-04-03T16:18:55;9.90;99.90
32201;DHT22;18701;45.588;5.288;2023-04-03T16:21:21;9.90;99.90
32201;DHT22;18701;45.588;5.288;2023-04-03T16:23:47;9.90;99.90
32201;DHT22;18701;45.588;5.288;2023-04-03T16:26:14;9.80;99.90
32201;DHT22;18701;45.588;5.288;2023-04-03T16:28:40;9.80;99.90
32201;DHT22;18701;45.588;5.288;2023-04-03T16:31:07;9.70;99.90
32201;DHT22;18701;45.588;5.288;2023-04-03T16:33:32;9.80;99.90
32201;DHT22;18701;45.588;5.288;2023-04-03T16:35:58;9.80;99.90
32201;DHT22;18701;45.588;5.288;2023-04-03T16:38:27;9.80;99.90
32201;DHT22;18701;45.588;5.288;2023-04-03T16:40:52;9.80;99.90
32201;DHT22;18701;45.588;5.288;2023-04-03T16:43:21;9.80;99.90
32201;DHT22;18701;45.588;5.288;2023-04-03T16:45:47;9.70;99.90
32201;DHT22;18701;45.588;5.288;2023-04-03T16:48:13;9.70;99.90
32201;DHT22;18701;45.588;5.288;2023-04-03T16:50:39;9.80;99.90
32201;DHT22;18701;45.588;5.288;2023-04-03T16:53:05;9.70;99.90
32201;DHT22;18701;45.588;5.288;2023-04-03T16:55:33;9.60;99.90
32201;DHT22;18701;45.588;5.288;2023-04-03T16:57:59;9.60;99.90
32201;DHT22;18701;45.588;5.288;2023-04-03T17:00:24;9.60;99.90
32201;DHT22;18701;45.588;5.288;2023-04-03T17:02:50;11.10;99.90
32201;DHT22;18701;45.588;5.288;2023-04-03T17:05:16;11.60;99.90
32201;DHT22;18701;45.588;5.288;2023-04-03T17:07:41;12.60;99.90
32201;DHT22;18701;45.588;5.288;2023-04-03T17:10:07;12.50;99.90
32201;DHT22;18701;45.588;5.288;2023-04-03T17:12:33;12.30;99.90
32201;DHT22;18701;45.588;5.288;2023-04-03T17:14:58;13.20;99.90
32201;DHT22;18701;45.588;5.288;2023-04-03T17:17:25;13.70;99.90
32201;DHT22;18701;45.588;5.288;2023-04-03T17:19:51;14.30;99.90
32201;DHT22;18701;45.588;5.288;2023-04-03T17:22:19;14.50;99.90
32201;DHT22;18701;45.588;5.288;2023-04-03T17:24:45;14.10;99.90
32201;DHT22;18701;45.588;5.288;2023-04-03T17:27:10;13.60;99.90
32201;DHT22;18701;45.588;5.288;2023-04-03T17:29:36;13.40;99.90
32201;DHT22;18701;45.588;5.288;2023-04-03T17:32:01;11.10;99.90
32201;DHT22;18701;45.588;5.288;2023-04-03T17:34:27;11.40;99.90
32201;DHT22;18701;45.588;5.288;2023-04-03T17:36:53;12.10;99.90
32201;DHT22;18701;45.588;5.288;2023-04-03T17:39:19;11.80;99.90
32201;DHT22;18701;45.588;5.288;2023-04-03T17:41:45;10.80;99.90
32201;DHT22;18701;45.588;5.288;2023-04-03T17:44:11;10.60;99.90
32201;DHT22;18701;45.588;5.288;2023-04-03T17:46:37;10.10;99.90